sensor_id;sensor_type;location;lat;lon;timestamp;temperature;humidity
36216;DHT22;22257;52.232;21.084;2022-08-21T00:00:18;22.10;99.90
36216;DHT22;22257;52.232;21.084;2022-08-21T00:02:53;22.10;99.90
36216;DHT22;22257;52.232;21.084;2022-08-21T00:05:21;22.00;99.90
36216;DHT22;22257;52.232;21.084;2022-08-21T00:07:45;22.00;99.90
36216;DHT22;22257;52.232;21.084;2022-08-21T00:10:12;21.90;99.90
36216;DHT22;22257;52.232;21.084;2022-08-21T00:12:40;22.00;99.90
36216;DHT22;22257;52.232;21.084;2022-08-21T00:15:09;21.90;99.90
36216;DHT22;22257;52.232;21.084;2022-08-21T00:17:36;21.90;99.90
36216;DHT22;22257;52.232;21.084;2022-08-21T00:20:08;21.80;99.90
36216;DHT22;22257;52.232;21.084;2022-08-21T00:22:36;21.80;99.90
36216;DHT22;22257;52.232;21.084;2022-08-21T00:25:04;21.80;99.90
36216;DHT22;22257;52.232;21.084;2022-08-21T00:27:32;21.70;99.90
36216;DHT22;22257;52.232;21.084;2022-08-21T00:29:58;21.70;99.90
36216;DHT22;22257;52.232;21.084;2022-08-21T00:32:26;21.70;99.90
36216;DHT22;22257;52.232;21.084;2022-08-21T00:34:53;21.60;99.90
36216;DHT22;22257;52.232;21.084;2022-08-21T00:37:20;21.60;99.90
36216;DHT22;22257;52.232;21.084;2022-08-21T00:39:46;21.60;99.90
36216;DHT22;22257;52.232;21.084;2022-08-21T00:42:14;21.60;99.90
36216;DHT22;22257;52.232;21.084;2022-08-21T00:44:42;21.50;99.90
36216;DHT22;22257;52.232;21.084;2022-08-21T00:47:10;21.50;99.90
36216;DHT22;22257;52.232;21.084;2022-08-21T00:49:37;21.40;99.90
36216;DHT22;22257;52.232;21.084;2022-08-21T00:52:07;21.40;99.90
36216;DHT22;22257;52.232;21.084;2022-08-21T00:54:34;21.40;99.90
36216;DHT22;22257;52.232;21.084;2022-08-21T00:57:05;21.30;99.90
36216;DHT22;22257;52.232;21.084;2022-08-21T00:59:32;21.20;99.90
36216;DHT22;22257;52.232;21.084;2022-08-21T01:01:58;21.20;99.90
36216;DHT22;22257;52.232;21.084;2022-08-21T01:04:25;21.20;99.90
36216;DHT22;22257;52.232;21.084;2022-08-21T01:06:51;21.20;99.90
36216;DHT22;22257;52.232;21.084;2022-08-21T01:09:18;21.10;99.90
36216;DHT22;22257;52.232;21.084;2022-08-21T01:11:45;21.10;99.90
36216;DHT22;22257;52.232;21.084;2022-08-21T01:14:12;21.10;99.90
36216;DHT22;22257;52.232;21.084;2022-08-21T01:16:43;21.10;99.90
36216;DHT22;22257;52.232;21.084;2022-08-21T01:19:10;21.00;99.90
36216;DHT22;22257;52.232;21.084;2022-08-21T01:21:37;21.00;99.90
36216;DHT22;22257;52.232;21.084;2022-08-21T01:24:03;20.90;99.90
36216;DHT22;22257;52.232;21.084;2022-08-21T01:26:32;21.00;99.90
36216;DHT22;22257;52.232;21.084;2022-08-21T01:29:07;20.90;99.90
36216;DHT22;22257;52.232;21.084;2022-08-21T01:31:33;20.90;99.90
36216;DHT22;22257;52.232;21.084;2022-08-21T01:34:00;20.90;99.90
36216;DHT22;22257;52.232;21.084;2022-08-21T01:36:26;20.90;99.90
36216;DHT22;22257;52.232;21.084;2022-08-21T01:38:53;20.90;99.90
36216;DHT22;22257;52.232;21.084;2022-08-21T01:41:19;20.90;99.90
36216;DHT22;22257;52.232;21.084;2022-08-21T01:43:45;20.80;99.90
36216;DHT22;22257;52.232;21.084;2022-08-21T01:46:12;20.80;99.90
36216;DHT22;22257;52.232;21.084;2022-08-21T01:48:38;20.80;99.90
36216;DHT22;22257;52.232;21.084;2022-08-21T01:51:06;20.90;99.90
36216;DHT22;22257;52.232;21.084;2022-08-21T01:53:34;20.80;99.90
36216;DHT22;22257;52.232;21.084;2022-08-21T01:56:04;20.80;99.90
36216;DHT22;22257;52.232;21.084;2022-08-21T01:58:31;20.80;99.90
36216;DHT22;22257;52.232;21.084;2022-08-21T02:01:00;20.70;99.90
36216;DHT22;22257;52.232;21.084;2022-08-21T02:03:28;20.70;99.90
36216;DHT22;22257;52.232;21.084;2022-08-21T02:05:55;20.70;99.90
36216;DHT22;22257;52.232;21.084;2022-08-21T02:08:22;20.70;99.90
36216;DHT22;22257;52.232;21.084;2022-08-21T02:10:50;20.60;99.90
36216;DHT22;22257;52.232;21.084;2022-08-21T02:13:17;20.60;99.90
36216;DHT22;22257;52.232;21.084;2022-08-21T02:15:43;20.50;99.90
36216;DHT22;22257;52.232;21.084;2022-08-21T02:18:10;20.50;99.90
36216;DHT22;22257;52.232;21.084;2022-08-21T02:20:39;20.40;99.90
36216;DHT22;22257;52.232;21.084;2022-08-21T02:23:08;20.40;99.90
36216;DHT22;22257;52.232;21.084;2022-08-21T02:25:35;20.40;99.90
36216;DHT22;22257;52.232;21.084;2022-08-21T02:28:08;20.40;99.90
36216;DHT22;22257;52.232;21.084;2022-08-21T02:30:38;20.40;99.90
36216;DHT22;22257;52.232;21.084;2022-08-21T02:33:06;20.30;99.90
36216;DHT22;22257;52.232;21.084;2022-08-21T02:35:33;20.30;99.90
36216;DHT22;22257;52.232;21.084;2022-08-21T02:38:02;20.30;99.90
36216;DHT22;22257;52.232;21.084;2022-08-21T02:40:32;20.30;99.90
36216;DHT22;22257;52.232;21.084;2022-08-21T02:43:00;20.30;99.90
36216;DHT22;22257;52.232;21.084;2022-08-21T02:45:28;20.30;99.90
36216;DHT22;22257;52.232;21.084;2022-08-21T02:47:58;20.20;99.90
36216;DHT22;22257;52.232;21.084;2022-08-21T02:50:40;20.20;99.90
36216;DHT22;22257;52.232;21.084;2022-08-21T02:53:08;20.20;99.90
36216;DHT22;22257;52.232;21.084;2022-08-21T02:55:35;20.20;99.90
36216;DHT22;22257;52.232;21.084;2022-08-21T02:58:04;20.20;99.90
36216;DHT22;22257;52.232;21.084;2022-08-21T03:00:32;20.20;99.90
36216;DHT22;22257;52.232;21.084;2022-08-21T03:02:59;20.10;99.90
36216;DHT22;22257;52.232;21.084;2022-08-21T03:05:27;20.10;99.90
36216;DHT22;22257;52.232;21.084;2022-08-21T03:07:54;20.10;99.90
36216;DHT22;22257;52.232;21.084;2022-08-21T03:10:21;20.10;99.90
36216;DHT22;22257;52.232;21.084;2022-08-21T03:12:48;20.10;99.90
36216;DHT22;22257;52.232;21.084;2022-08-21T03:15:17;20.10;99.90
36216;DHT22;22257;52.232;21.084;2022-08-21T03:17:45;20.00;99.90
36216;DHT22;22257;52.232;21.084;2022-08-21T03:20:13;20.00;99.90
36216;DHT22;22257;52.232;21.084;2022-08-21T03:22:40;20.00;99.90
36216;DHT22;22257;52.232;21.084;2022-08-21T03:25:08;20.00;99.90
36216;DHT22;22257;52.232;21.084;2022-08-21T03:27:35;20.00;99.90
36216;DHT22;22257;52.232;21.084;2022-08-21T03:30:02;19.90;99.90
36216;DHT22;22257;52.232;21.084;2022-08-21T03:32:29;19.90;99.90
36216;DHT22;22257;52.232;21.084;2022-08-21T03:34:58;19.90;99.90
36216;DHT22;22257;52.232;21.084;2022-08-21T03:37:26;19.80;99.90
36216;DHT22;22257;52.232;21.084;2022-08-21T03:39:52;19.80;99.90
36216;DHT22;22257;52.232;21.084;2022-08-21T03:42:19;19.80;99.90
36216;DHT22;22257;52.232;21.084;2022-08-21T03:44:45;19.80;99.90
36216;DHT22;22257;52.232;21.084;2022-08-21T03:47:11;19.70;99.90
36216;DHT22;22257;52.232;21.084;2022-08-21T03:49:38;19.70;99.90
36216;DHT22;22257;52.232;21.084;2022-08-21T03:52:04;19.70;99.90
36216;DHT22;22257;52.232;21.084;2022-08-21T03:54:31;19.70;99.90
36216;DHT22;22257;52.232;21.084;2022-08-21T03:56:57;19.70;99.90
36216;DHT22;22257;52.232;21.084;2022-08-21T03:59:24;19.70;99.90
36216;DHT22;22257;52.232;21.084;2022-08-21T04:01:58;19.70;99.90
36216;DHT22;22257;52.232;21.084;2022-08-21T04:04:21;19.70;99.90
36216;DHT22;22257;52.232;21.084;2022-08-21T04:06:47;19.70;99.90
36216;DHT22;22257;52.232;21.084;2022-08-21T04:09:13;19.70;99.90
36216;DHT22;22257;52.232;21.084;2022-08-21T04:11:39;19.80;99.90
36216;DHT22;22257;52.232;21.084;2022-08-21T04:14:05;19.80;99.90
36216;DHT22;22257;52.232;21.084;2022-08-21T04:16:32;19.70;99.90
36216;DHT22;22257;52.232;21.084;2022-08-21T04:18:58;19.70;99.90
36216;DHT22;22257;52.232;21.084;2022-08-21T04:21:24;19.70;99.90
36216;DHT22;22257;52.232;21.084;2022-08-21T04:23:56;19.70;99.90
36216;DHT22;22257;52.232;21.084;2022-08-21T04:26:23;19.70;99.90
36216;DHT22;22257;52.232;21.084;2022-08-21T04:28:49;19.80;99.90
36216;DHT22;22257;52.232;21.084;2022-08-21T04:31:15;19.80;99.90
36216;DHT22;22257;52.232;21.084;2022-08-21T04:33:41;19.80;99.90
36216;DHT22;22257;52.232;21.084;2022-08-21T04:36:08;19.80;99.90
36216;DHT22;22257;52.232;21.084;2022-08-21T04:38:35;19.80;99.90
36216;DHT22;22257;52.232;21.084;2022-08-21T04:41:01;19.80;99.90
36216;DHT22;22257;52.232;21.084;2022-08-21T04:43:27;19.90;99.90
36216;DHT22;22257;52.232;21.084;2022-08-21T04:45:54;20.00;99.90
36216;DHT22;22257;52.232;21.084;2022-08-21T04:48:22;20.00;99.90
36216;DHT22;22257;52.232;21.084;2022-08-21T04:55:56;19.90;99.90
36216;DHT22;22257;52.232;21.084;2022-08-21T04:58:24;20.00;99.90
36216;DHT22;22257;52.232;21.084;2022-08-21T05:00:54;20.00;99.90
36216;DHT22;22257;52.232;21.084;2022-08-21T05:03:21;20.10;99.90
36216;DHT22;22257;52.232;21.084;2022-08-21T05:05:48;20.10;99.90
36216;DHT22;22257;52.232;21.084;2022-08-21T05:08:18;20.10;99.90
36216;DHT22;22257;52.232;21.084;2022-08-21T05:10:45;20.20;99.90
36216;DHT22;22257;52.232;21.084;2022-08-21T05:13:12;20.20;99.90
36216;DHT22;22257;52.232;21.084;2022-08-21T05:15:39;20.20;99.90
36216;DHT22;22257;52.232;21.084;2022-08-21T05:18:05;20.30;99.90
36216;DHT22;22257;52.232;21.084;2022-08-21T05:20:33;20.30;99.90
36216;DHT22;22257;52.232;21.084;2022-08-21T05:23:10;20.30;99.90
36216;DHT22;22257;52.232;21.084;2022-08-21T05:25:37;20.30;99.90
36216;DHT22;22257;52.232;21.084;2022-08-21T05:28:04;20.50;99.90
36216;DHT22;22257;52.232;21.084;2022-08-21T05:30:32;20.70;99.90
36216;DHT22;22257;52.232;21.084;2022-08-21T05:33:01;20.80;99.90
36216;DHT22;22257;52.232;21.084;2022-08-21T05:35:28;21.00;99.90
36216;DHT22;22257;52.232;21.084;2022-08-21T05:37:56;21.00;99.90
36216;DHT22;22257;52.232;21.084;2022-08-21T05:40:23;21.00;99.90
36216;DHT22;22257;52.232;21.084;2022-08-21T05:42:51;21.10;99.90
36216;DHT22;22257;52.232;21.084;2022-08-21T05:45:18;21.30;99.90
36216;DHT22;22257;52.232;21.084;2022-08-21T05:47:45;21.50;99.90
36216;DHT22;22257;52.232;21.084;2022-08-21T05:50:11;21.60;99.90
36216;DHT22;22257;52.232;21.084;2022-08-21T05:52:38;21.70;99.90
36216;DHT22;22257;52.232;21.084;2022-08-21T05:55:05;21.70;99.90
36216;DHT22;22257;52.232;21.084;2022-08-21T05:57:31;21.60;99.90
36216;DHT22;22257;52.232;21.084;2022-08-21T05:59:58;21.50;99.90
36216;DHT22;22257;52.232;21.084;2022-08-21T06:02:24;21.50;99.90
36216;DHT22;22257;52.232;21.084;2022-08-21T06:04:50;21.60;99.90
36216;DHT22;22257;52.232;21.084;2022-08-21T06:07:16;21.70;99.90
36216;DHT22;22257;52.232;21.084;2022-08-21T06:09:42;21.80;99.90
36216;DHT22;22257;52.232;21.084;2022-08-21T06:12:11;22.00;99.90
36216;DHT22;22257;52.232;21.084;2022-08-21T06:14:40;22.10;99.90
36216;DHT22;22257;52.232;21.084;2022-08-21T06:17:09;22.10;99.90
36216;DHT22;22257;52.232;21.084;2022-08-21T06:19:36;22.10;99.90
36216;DHT22;22257;52.232;21.084;2022-08-21T06:22:03;22.20;99.90
36216;DHT22;22257;52.232;21.084;2022-08-21T06:24:30;22.10;99.90
36216;DHT22;22257;52.232;21.084;2022-08-21T06:26:57;22.20;99.90
36216;DHT22;22257;52.232;21.084;2022-08-21T06:29:23;22.20;99.90
36216;DHT22;22257;52.232;21.084;2022-08-21T06:31:51;22.30;99.90
36216;DHT22;22257;52.232;21.084;2022-08-21T06:34:18;22.30;99.90
36216;DHT22;22257;52.232;21.084;2022-08-21T06:36:44;22.30;99.90
36216;DHT22;22257;52.232;21.084;2022-08-21T06:39:11;22.50;99.90
36216;DHT22;22257;52.232;21.084;2022-08-21T06:41:39;22.50;99.90
36216;DHT22;22257;52.232;21.084;2022-08-21T06:44:05;22.70;99.90
36216;DHT22;22257;52.232;21.084;2022-08-21T06:46:32;22.70;99.90
36216;DHT22;22257;52.232;21.084;2022-08-21T06:48:59;22.80;99.90
36216;DHT22;22257;52.232;21.084;2022-08-21T06:51:26;22.70;99.90
36216;DHT22;22257;52.232;21.084;2022-08-21T06:53:53;22.70;99.90
36216;DHT22;22257;52.232;21.084;2022-08-21T06:56:19;22.70;99.90
36216;DHT22;22257;52.232;21.084;2022-08-21T06:58:46;22.70;99.90
36216;DHT22;22257;52.232;21.084;2022-08-21T07:01:12;22.80;99.90
36216;DHT22;22257;52.232;21.084;2022-08-21T07:03:41;22.90;99.90
36216;DHT22;22257;52.232;21.084;2022-08-21T07:06:10;23.00;99.90
36216;DHT22;22257;52.232;21.084;2022-08-21T07:08:37;23.00;99.90
36216;DHT22;22257;52.232;21.084;2022-08-21T07:11:11;23.20;99.90
36216;DHT22;22257;52.232;21.084;2022-08-21T07:13:37;23.00;99.90
36216;DHT22;22257;52.232;21.084;2022-08-21T07:16:04;23.00;99.90
36216;DHT22;22257;52.232;21.084;2022-08-21T07:18:30;23.00;99.90
36216;DHT22;22257;52.232;21.084;2022-08-21T07:20:57;22.90;99.90
36216;DHT22;22257;52.232;21.084;2022-08-21T07:23:28;23.00;99.90
36216;DHT22;22257;52.232;21.084;2022-08-21T07:25:55;23.10;99.90
36216;DHT22;22257;52.232;21.084;2022-08-21T07:28:21;23.30;99.90
36216;DHT22;22257;52.232;21.084;2022-08-21T07:30:53;23.50;99.90
36216;DHT22;22257;52.232;21.084;2022-08-21T07:33:20;23.70;99.90
36216;DHT22;22257;52.232;21.084;2022-08-21T07:35:48;23.70;99.90
36216;DHT22;22257;52.232;21.084;2022-08-21T07:38:15;23.90;99.90
36216;DHT22;22257;52.232;21.084;2022-08-21T07:40:41;24.00;99.90
36216;DHT22;22257;52.232;21.084;2022-08-21T07:43:07;24.00;99.90
36216;DHT22;22257;52.232;21.084;2022-08-21T07:45:35;24.00;99.90
36216;DHT22;22257;52.232;21.084;2022-08-21T07:48:01;24.00;99.90
36216;DHT22;22257;52.232;21.084;2022-08-21T07:50:27;24.10;99.90
36216;DHT22;22257;52.232;21.084;2022-08-21T07:52:53;24.20;99.90
36216;DHT22;22257;52.232;21.084;2022-08-21T07:55:21;24.40;99.90
36216;DHT22;22257;52.232;21.084;2022-08-21T07:57:48;24.30;99.90
36216;DHT22;22257;52.232;21.084;2022-08-21T08:00:18;24.20;99.90
36216;DHT22;22257;52.232;21.084;2022-08-21T08:02:48;24.30;99.90
36216;DHT22;22257;52.232;21.084;2022-08-21T08:05:21;24.30;99.90
36216;DHT22;22257;52.232;21.084;2022-08-21T08:07:47;24.50;99.90
36216;DHT22;22257;52.232;21.084;2022-08-21T08:10:14;24.60;99.90
36216;DHT22;22257;52.232;21.084;2022-08-21T08:12:41;24.50;99.90
36216;DHT22;22257;52.232;21.084;2022-08-21T08:15:15;24.70;99.90
36216;DHT22;22257;52.232;21.084;2022-08-21T08:17:40;24.80;99.90
36216;DHT22;22257;52.232;21.084;2022-08-21T08:20:08;24.60;99.90
36216;DHT22;22257;52.232;21.084;2022-08-21T08:22:36;24.70;99.90
36216;DHT22;22257;52.232;21.084;2022-08-21T08:25:04;24.90;99.90
36216;DHT22;22257;52.232;21.084;2022-08-21T08:27:32;25.10;99.90
36216;DHT22;22257;52.232;21.084;2022-08-21T08:29:58;25.20;99.90
36216;DHT22;22257;52.232;21.084;2022-08-21T08:32:24;25.20;99.90
36216;DHT22;22257;52.232;21.084;2022-08-21T08:34:50;25.30;99.90
36216;DHT22;22257;52.232;21.084;2022-08-21T08:37:19;25.50;99.90
36216;DHT22;22257;52.232;21.084;2022-08-21T08:39:46;25.20;99.90
36216;DHT22;22257;52.232;21.084;2022-08-21T08:42:15;25.20;99.90
36216;DHT22;22257;52.232;21.084;2022-08-21T08:44:43;25.10;99.90
36216;DHT22;22257;52.232;21.084;2022-08-21T08:47:12;25.40;99.90
36216;DHT22;22257;52.232;21.084;2022-08-21T08:49:49;25.70;99.90
36216;DHT22;22257;52.232;21.084;2022-08-21T08:52:26;25.90;99.90
36216;DHT22;22257;52.232;21.084;2022-08-21T08:57:37;25.90;99.90
36216;DHT22;22257;52.232;21.084;2022-08-21T09:00:08;25.90;99.90
36216;DHT22;22257;52.232;21.084;2022-08-21T09:02:38;26.20;99.90
36216;DHT22;22257;52.232;21.084;2022-08-21T09:05:06;26.50;99.90
36216;DHT22;22257;52.232;21.084;2022-08-21T09:10:30;26.70;99.90
36216;DHT22;22257;52.232;21.084;2022-08-21T09:15:57;27.10;99.90
36216;DHT22;22257;52.232;21.084;2022-08-21T09:22:23;27.40;99.90
36216;DHT22;22257;52.232;21.084;2022-08-21T09:27:07;27.30;99.90
36216;DHT22;22257;52.232;21.084;2022-08-21T09:29:40;27.30;99.90
36216;DHT22;22257;52.232;21.084;2022-08-21T09:32:18;27.50;99.90
36216;DHT22;22257;52.232;21.084;2022-08-21T09:35:07;27.60;99.90
36216;DHT22;22257;52.232;21.084;2022-08-21T09:37:44;27.90;99.90
36216;DHT22;22257;52.232;21.084;2022-08-21T09:40:15;27.70;99.90
36216;DHT22;22257;52.232;21.084;2022-08-21T09:42:32;27.60;99.90
36216;DHT22;22257;52.232;21.084;2022-08-21T09:45:10;27.50;99.90
36216;DHT22;22257;52.232;21.084;2022-08-21T09:47:35;27.60;99.90
36216;DHT22;22257;52.232;21.084;2022-08-21T09:50:16;27.70;99.90
36216;DHT22;22257;52.232;21.084;2022-08-21T09:52:44;27.70;99.90
36216;DHT22;22257;52.232;21.084;2022-08-21T09:55:21;27.20;99.90
36216;DHT22;22257;52.232;21.084;2022-08-21T09:58:06;26.80;99.90
36216;DHT22;22257;52.232;21.084;2022-08-21T10:00:35;26.70;99.90
36216;DHT22;22257;52.232;21.084;2022-08-21T10:03:18;26.50;99.90
36216;DHT22;22257;52.232;21.084;2022-08-21T10:05:59;26.40;99.90
36216;DHT22;22257;52.232;21.084;2022-08-21T10:08:27;26.70;99.90
36216;DHT22;22257;52.232;21.084;2022-08-21T10:11:06;26.80;99.90
36216;DHT22;22257;52.232;21.084;2022-08-21T10:13:29;26.90;99.90
36216;DHT22;22257;52.232;21.084;2022-08-21T10:21:27;27.00;99.90
36216;DHT22;22257;52.232;21.084;2022-08-21T10:24:10;27.20;99.90
36216;DHT22;22257;52.232;21.084;2022-08-21T10:29:46;26.90;99.90
36216;DHT22;22257;52.232;21.084;2022-08-21T10:32:21;26.90;99.90
36216;DHT22;22257;52.232;21.084;2022-08-21T10:40:53;26.80;99.90
36216;DHT22;22257;52.232;21.084;2022-08-21T10:48:49;27.10;99.90
36216;DHT22;22257;52.232;21.084;2022-08-21T10:51:20;27.50;99.90
36216;DHT22;22257;52.232;21.084;2022-08-21T10:53:59;27.80;99.90
36216;DHT22;22257;52.232;21.084;2022-08-21T10:56:26;28.10;99.90
36216;DHT22;22257;52.232;21.084;2022-08-21T10:59:03;28.10;99.90
36216;DHT22;22257;52.232;21.084;2022-08-21T11:01:39;28.40;99.90
36216;DHT22;22257;52.232;21.084;2022-08-21T11:06:42;28.70;99.90
36216;DHT22;22257;52.232;21.084;2022-08-21T11:09:13;29.20;99.90
36216;DHT22;22257;52.232;21.084;2022-08-21T11:12:27;29.60;99.90
36216;DHT22;22257;52.232;21.084;2022-08-21T11:19:45;29.90;99.90
36216;DHT22;22257;52.232;21.084;2022-08-21T11:22:25;30.40;99.90
36216;DHT22;22257;52.232;21.084;2022-08-21T11:25:04;30.50;98.10
36216;DHT22;22257;52.232;21.084;2022-08-21T11:30:11;30.10;98.70
36216;DHT22;22257;52.232;21.084;2022-08-21T11:32:56;30.00;98.40
36216;DHT22;22257;52.232;21.084;2022-08-21T11:36:06;30.10;98.10
36216;DHT22;22257;52.232;21.084;2022-08-21T11:49:01;28.80;99.30
36216;DHT22;22257;52.232;21.084;2022-08-21T11:51:32;28.50;99.90
36216;DHT22;22257;52.232;21.084;2022-08-21T11:54:24;28.90;99.90
36216;DHT22;22257;52.232;21.084;2022-08-21T11:57:02;29.90;99.90
36216;DHT22;22257;52.232;21.084;2022-08-21T11:59:39;30.80;98.20
36216;DHT22;22257;52.232;21.084;2022-08-21T12:01:55;31.20;97.40
36216;DHT22;22257;52.232;21.084;2022-08-21T12:04:34;31.40;95.20
36216;DHT22;22257;52.232;21.084;2022-08-21T12:10:01;31.60;93.30
36216;DHT22;22257;52.232;21.084;2022-08-21T12:12:37;30.40;94.00
36216;DHT22;22257;52.232;21.084;2022-08-21T12:17:39;30.60;95.10
36216;DHT22;22257;52.232;21.084;2022-08-21T12:23:12;31.20;94.10
36216;DHT22;22257;52.232;21.084;2022-08-21T12:25:36;30.30;94.80
36216;DHT22;22257;52.232;21.084;2022-08-21T12:28:11;29.50;96.70
36216;DHT22;22257;52.232;21.084;2022-08-21T12:30:38;29.20;97.20
36216;DHT22;22257;52.232;21.084;2022-08-21T12:33:18;29.00;97.90
36216;DHT22;22257;52.232;21.084;2022-08-21T12:35:38;28.70;98.50
36216;DHT22;22257;52.232;21.084;2022-08-21T12:41:03;29.10;98.00
36216;DHT22;22257;52.232;21.084;2022-08-21T12:43:33;29.40;97.50
36216;DHT22;22257;52.232;21.084;2022-08-21T12:46:00;29.80;96.60
36216;DHT22;22257;52.232;21.084;2022-08-21T12:48:51;30.30;94.90
36216;DHT22;22257;52.232;21.084;2022-08-21T12:51:22;30.70;93.90
36216;DHT22;22257;52.232;21.084;2022-08-21T12:53:50;31.00;92.70
36216;DHT22;22257;52.232;21.084;2022-08-21T12:56:19;31.40;91.40
36216;DHT22;22257;52.232;21.084;2022-08-21T12:58:48;31.00;90.70
36216;DHT22;22257;52.232;21.084;2022-08-21T13:01:25;30.30;91.30
36216;DHT22;22257;52.232;21.084;2022-08-21T13:03:58;30.50;92.50
36216;DHT22;22257;52.232;21.084;2022-08-21T13:06:26;30.00;93.90
36216;DHT22;22257;52.232;21.084;2022-08-21T13:08:57;29.70;95.10
36216;DHT22;22257;52.232;21.084;2022-08-21T13:11:23;29.30;95.80
36216;DHT22;22257;52.232;21.084;2022-08-21T13:13:51;29.50;96.10
36216;DHT22;22257;52.232;21.084;2022-08-21T13:16:24;28.90;96.90
36216;DHT22;22257;52.232;21.084;2022-08-21T13:19:00;28.80;97.80
36216;DHT22;22257;52.232;21.084;2022-08-21T13:21:31;28.40;98.40
36216;DHT22;22257;52.232;21.084;2022-08-21T13:24:07;28.30;99.00
36216;DHT22;22257;52.232;21.084;2022-08-21T13:26:34;27.90;99.90
36216;DHT22;22257;52.232;21.084;2022-08-21T13:29:09;27.50;99.90
36216;DHT22;22257;52.232;21.084;2022-08-21T13:31:38;27.30;99.90
36216;DHT22;22257;52.232;21.084;2022-08-21T13:34:06;27.40;99.90
36216;DHT22;22257;52.232;21.084;2022-08-21T13:36:37;27.50;99.90
36216;DHT22;22257;52.232;21.084;2022-08-21T13:39:10;27.70;99.90
36216;DHT22;22257;52.232;21.084;2022-08-21T13:41:38;27.60;99.90
36216;DHT22;22257;52.232;21.084;2022-08-21T13:44:14;27.70;99.90
36216;DHT22;22257;52.232;21.084;2022-08-21T13:46:35;28.10;99.90
36216;DHT22;22257;52.232;21.084;2022-08-21T13:49:03;28.30;99.90
36216;DHT22;22257;52.232;21.084;2022-08-21T13:51:32;28.80;99.90
36216;DHT22;22257;52.232;21.084;2022-08-21T13:53:58;29.20;99.50
36216;DHT22;22257;52.232;21.084;2022-08-21T13:56:28;29.40;99.30
36216;DHT22;22257;52.232;21.084;2022-08-21T13:58:56;29.00;98.50
36216;DHT22;22257;52.232;21.084;2022-08-21T14:06:46;28.50;99.40
36216;DHT22;22257;52.232;21.084;2022-08-21T14:11:56;28.40;99.90
36216;DHT22;22257;52.232;21.084;2022-08-21T14:14:34;28.70;99.90
36216;DHT22;22257;52.232;21.084;2022-08-21T14:17:04;29.80;99.10
36216;DHT22;22257;52.232;21.084;2022-08-21T14:19:41;30.40;96.60
36216;DHT22;22257;52.232;21.084;2022-08-21T14:22:27;29.80;96.10
36216;DHT22;22257;52.232;21.084;2022-08-21T14:25:06;29.50;96.90
36216;DHT22;22257;52.232;21.084;2022-08-21T14:27:37;29.30;97.00
36216;DHT22;22257;52.232;21.084;2022-08-21T14:30:18;28.80;97.90
36216;DHT22;22257;52.232;21.084;2022-08-21T14:32:46;28.70;97.90
36216;DHT22;22257;52.232;21.084;2022-08-21T14:35:13;28.80;97.50
36216;DHT22;22257;52.232;21.084;2022-08-21T14:37:43;29.50;97.60
36216;DHT22;22257;52.232;21.084;2022-08-21T14:40:11;30.00;95.50
36216;DHT22;22257;52.232;21.084;2022-08-21T14:42:40;30.80;93.60
36216;DHT22;22257;52.232;21.084;2022-08-21T14:45:16;30.60;92.70
36216;DHT22;22257;52.232;21.084;2022-08-21T14:47:42;30.50;93.30
36216;DHT22;22257;52.232;21.084;2022-08-21T14:50:11;30.50;91.80
36216;DHT22;22257;52.232;21.084;2022-08-21T14:52:38;30.20;92.00
36216;DHT22;22257;52.232;21.084;2022-08-21T14:55:06;30.00;91.80
36216;DHT22;22257;52.232;21.084;2022-08-21T14:57:32;30.30;91.80
36216;DHT22;22257;52.232;21.084;2022-08-21T14:59:59;30.70;91.30
36216;DHT22;22257;52.232;21.084;2022-08-21T15:02:26;30.80;90.80
36216;DHT22;22257;52.232;21.084;2022-08-21T15:04:52;31.10;90.10
36216;DHT22;22257;52.232;21.084;2022-08-21T15:07:18;31.40;90.10
36216;DHT22;22257;52.232;21.084;2022-08-21T15:09:44;30.80;88.80
36216;DHT22;22257;52.232;21.084;2022-08-21T15:12:12;30.60;89.80
36216;DHT22;22257;52.232;21.084;2022-08-21T15:14:39;30.30;89.70
36216;DHT22;22257;52.232;21.084;2022-08-21T15:17:08;30.20;90.40
36216;DHT22;22257;52.232;21.084;2022-08-21T15:19:35;30.60;90.20
36216;DHT22;22257;52.232;21.084;2022-08-21T15:22:02;30.30;90.00
36216;DHT22;22257;52.232;21.084;2022-08-21T15:24:30;30.70;89.20
36216;DHT22;22257;52.232;21.084;2022-08-21T15:26:59;30.30;89.90
36216;DHT22;22257;52.232;21.084;2022-08-21T15:29:28;29.90;90.40
36216;DHT22;22257;52.232;21.084;2022-08-21T15:31:58;29.70;90.90
36216;DHT22;22257;52.232;21.084;2022-08-21T15:34:27;29.90;90.50
36216;DHT22;22257;52.232;21.084;2022-08-21T15:36:55;30.20;90.50
36216;DHT22;22257;52.232;21.084;2022-08-21T15:39:23;29.60;91.50
36216;DHT22;22257;52.232;21.084;2022-08-21T15:41:49;30.00;92.30
36216;DHT22;22257;52.232;21.084;2022-08-21T15:44:16;29.30;92.50
36216;DHT22;22257;52.232;21.084;2022-08-21T15:46:43;28.60;94.60
36216;DHT22;22257;52.232;21.084;2022-08-21T15:49:10;29.00;95.40
36216;DHT22;22257;52.232;21.084;2022-08-21T15:51:37;28.60;96.40
36216;DHT22;22257;52.232;21.084;2022-08-21T15:54:03;28.70;97.40
36216;DHT22;22257;52.232;21.084;2022-08-21T15:56:35;28.60;98.20
36216;DHT22;22257;52.232;21.084;2022-08-21T15:59:05;28.30;99.00
36216;DHT22;22257;52.232;21.084;2022-08-21T16:01:32;27.80;99.90
36216;DHT22;22257;52.232;21.084;2022-08-21T16:03:59;27.80;99.90
36216;DHT22;22257;52.232;21.084;2022-08-21T16:06:25;27.90;99.90
36216;DHT22;22257;52.232;21.084;2022-08-21T16:08:51;27.60;99.90
36216;DHT22;22257;52.232;21.084;2022-08-21T16:11:18;27.60;99.90
36216;DHT22;22257;52.232;21.084;2022-08-21T16:13:45;27.40;99.90
36216;DHT22;22257;52.232;21.084;2022-08-21T16:16:20;27.20;99.90
36216;DHT22;22257;52.232;21.084;2022-08-21T16:18:47;27.30;99.90
36216;DHT22;22257;52.232;21.084;2022-08-21T16:21:15;27.60;99.90
36216;DHT22;22257;52.232;21.084;2022-08-21T16:23:41;27.90;99.90
36216;DHT22;22257;52.232;21.084;2022-08-21T16:26:09;27.90;99.90
36216;DHT22;22257;52.232;21.084;2022-08-21T16:28:38;28.00;99.90
36216;DHT22;22257;52.232;21.084;2022-08-21T16:31:07;27.90;99.90
36216;DHT22;22257;52.232;21.084;2022-08-21T16:33:43;27.30;99.90
36216;DHT22;22257;52.232;21.084;2022-08-21T16:36:07;27.20;99.90
36216;DHT22;22257;52.232;21.084;2022-08-21T16:38:35;26.90;99.90
36216;DHT22;22257;52.232;21.084;2022-08-21T16:41:08;26.80;99.90
36216;DHT22;22257;52.232;21.084;2022-08-21T16:43:35;26.70;99.90
36216;DHT22;22257;52.232;21.084;2022-08-21T16:46:04;26.60;99.90